Time;durP1;ratioP1;P1;durP2;ratioP2;P2;SDS_P1;SDS_P2;PMS_P1;PMS_P2;Temp;Humidity;BMP_temperature;BMP_pressure;BME280_temperature;BME280_humidity;BME280_pressure;Samples;Min_cycle;Max_cycle;Signal;HPM_P1;HPM_P2
2022/03/21 00:01:30;;;;;;;72.45;33.28;;;;;;;2.53;77.52;103069.75;5075237;28;20097;-79
2022/03/21 00:03:59;;;;;;;80.40;35.47;;;;;;;2.52;77.46;103086.06;5072210;28;20055;-73
2022/03/21 00:06:28;;;;;;;78.47;35.25;;;;;;;2.56;77.67;103080.38;5059039;28;20056;-72
2022/03/21 00:08:56;;;;;;;63.83;31.23;;;;;;;2.48;77.50;103077.94;5075719;28;20511;-73
2022/03/21 00:11:25;;;;;;;73.28;33.22;;;;;;;2.48;77.57;103088.28;5075916;28;20128;-73
2022/03/21 00:13:54;;;;;;;70.57;32.90;;;;;;;2.51;77.70;103092.03;5071386;28;20036;-73
2022/03/21 00:16:23;;;;;;;72.22;34.40;;;;;;;2.45;77.39;103090.63;5079399;28;20413;-73
2022/03/21 00:18:54;;;;;;;73.30;32.17;;;;;;;2.46;77.54;103097.63;5073946;28;20055;-73
2022/03/21 00:21:23;;;;;;;63.10;30.27;;;;;;;2.47;77.55;103095.16;5075029;28;20044;-73
2022/03/21 00:23:52;;;;;;;76.22;32.85;;;;;;;2.47;77.66;103094.25;5074076;28;20068;-73
2022/03/21 00:26:20;;;;;;;70.38;31.88;;;;;;;2.48;77.67;103096.06;5071343;28;20103;-72
2022/03/21 00:28:49;;;;;;;71.38;31.17;;;;;;;2.52;77.38;103092.94;5073415;28;20535;-72
2022/03/21 00:31:16;;;;;;;70.82;31.40;;;;;;;2.50;77.45;103097.09;5069702;28;20059;-78
2022/03/21 00:33:44;;;;;;;67.95;32.40;;;;;;;2.45;77.40;103090.63;5070085;28;20044;-78
2022/03/21 00:36:12;;;;;;;66.55;32.33;;;;;;;2.48;77.62;103085.69;5072304;28;20519;-78
2022/03/21 00:38:57;;;;;;;76.82;32.97;;;;;;;2.46;77.60;103087.25;5073787;28;20032;-78
2022/03/21 00:41:25;;;;;;;74.57;34.25;;;;;;;2.41;77.56;103083.38;5065442;28;20107;-79
2022/03/21 00:43:53;;;;;;;67.95;31.65;;;;;;;2.40;77.72;103095.44;5074827;28;20047;-78
2022/03/21 00:46:23;;;;;;;68.63;32.85;;;;;;;2.38;77.58;103083.13;5074182;28;20043;-77
2022/03/21 00:48:50;;;;;;;77.68;34.90;;;;;;;2.41;77.63;103088.56;5070936;28;20458;-79
2022/03/21 00:51:18;;;;;;;74.53;32.58;;;;;;;2.35;77.70;103093.25;5071585;28;20211;-79
2022/03/21 00:53:46;;;;;;;91.20;36.20;;;;;;;2.41;77.67;103088.56;5075734;28;20059;-77
2022/03/21 00:56:15;;;;;;;69.63;33.05;;;;;;;2.42;77.63;103095.56;5072706;28;20056;-79
2022/03/21 00:58:43;;;;;;;74.25;33.03;;;;;;;2.39;77.48;103090.13;5074858;28;20097;-79
2022/03/21 01:01:11;;;;;;;76.22;32.35;;;;;;;2.34;77.59;103096.63;5077959;28;20048;-73
2022/03/21 01:03:40;;;;;;;71.20;32.67;;;;;;;2.40;77.48;103092.84;5077736;28;20072;-73
2022/03/21 01:06:09;;;;;;;77.85;35.05;;;;;;;2.40;77.40;103098.03;5075412;28;20192;-73
2022/03/21 01:08:36;;;;;;;74.07;32.13;;;;;;;2.45;77.39;103101.91;5078605;28;20055;-73
2022/03/21 01:11:04;;;;;;;80.18;35.15;;;;;;;2.46;77.17;103102.81;5075786;28;20052;-73
2022/03/21 01:13:39;;;;;;;74.25;32.88;;;;;;;2.44;77.29;103107.84;5075299;28;20147;-73
2022/03/21 01:16:07;;;;;;;68.35;31.80;;;;;;;2.41;76.99;103105.00;5077572;28;20139;-73
2022/03/21 01:18:35;;;;;;;67.93;31.60;;;;;;;2.34;77.42;103096.63;5075472;28;20135;-73
2022/03/21 01:21:03;;;;;;;71.75;33.70;;;;;;;2.34;77.59;103101.78;5077622;28;20105;-74
2022/03/21 01:23:31;;;;;;;75.28;31.58;;;;;;;2.35;77.39;103103.59;5077306;28;20058;-79
2022/03/21 01:25:59;;;;;;;72.28;31.75;;;;;;;2.37;77.41;103102.94;5079108;28;20142;-73
2022/03/21 01:28:26;;;;;;;67.20;31.73;;;;;;;2.34;77.39;103101.78;5076332;28;20052;-73
2022/03/21 01:30:56;;;;;;;69.30;31.70;;;;;;;2.27;77.17;103106.47;5076301;28;20032;-73
2022/03/21 01:33:26;;;;;;;68.75;30.77;;;;;;;2.27;77.26;103108.16;5075866;28;20058;-74
2022/03/21 01:35:53;;;;;;;77.53;32.00;;;;;;;2.22;77.74;103097.41;5076379;28;20036;-74
2022/03/21 01:38:22;;;;;;;67.50;31.25;;;;;;;2.15;77.40;103105.44;5066718;28;20093;-73
2022/03/21 01:40:50;;;;;;;88.03;36.13;;;;;;;2.10;77.80;103105.84;5070939;28;20496;-73
2022/03/21 01:43:18;;;;;;;69.22;30.65;;;;;;;2.03;77.71;103108.72;5064504;28;20049;-73
2022/03/21 01:45:46;;;;;;;73.13;30.88;;;;;;;1.91;77.72;103114.69;5073392;28;20059;-74
2022/03/21 01:48:15;;;;;;;74.80;31.38;;;;;;;1.79;77.94;103125.69;5074354;28;20101;-73
2022/03/21 01:50:44;;;;;;;73.75;31.23;;;;;;;1.75;78.40;103116.75;5073087;28;20048;-73
2022/03/21 01:55:59;;;;;;;77.40;32.95;;;;;;;1.72;79.28;103126.84;5074595;28;20145;-79
2022/03/21 01:58:30;;;;;;;75.63;33.65;;;;;;;1.61;78.63;103120.75;5071326;28;20048;-79
2022/03/21 02:00:57;;;;;;;75.55;32.03;;;;;;;1.51;79.16;103120.75;5077415;28;20076;-79
2022/03/21 02:03:30;;;;;;;69.90;31.05;;;;;;;1.42;79.18;103124.22;5071285;28;20052;-80
2022/03/21 02:05:58;;;;;;;65.70;28.75;;;;;;;1.33;79.14;103123.41;5075612;28;20106;-79
2022/03/21 02:08:27;;;;;;;66.88;28.58;;;;;;;1.24;79.58;103133.88;5075799;28;20183;-79
2022/03/21 02:10:55;;;;;;;62.10;29.73;;;;;;;1.15;79.47;103130.47;5075622;28;20092;-79
2022/03/21 02:13:26;;;;;;;71.68;31.60;;;;;;;1.06;79.91;103125.41;5075884;28;20055;-77
2022/03/21 02:15:55;;;;;;;75.28;31.25;;;;;;;1.00;79.97;103131.75;5072856;28;20037;-72
2022/03/21 02:18:25;;;;;;;70.15;30.85;;;;;;;0.91;80.24;103124.09;5066628;28;20162;-73
2022/03/21 02:20:57;;;;;;;77.70;30.48;;;;;;;0.88;80.45;103132.47;5065910;28;20517;-73
2022/03/21 02:23:36;;;;;;;62.42;30.08;;;;;;;0.79;80.63;103128.16;5071663;28;20102;-73
2022/03/21 02:26:08;;;;;;;72.07;29.75;;;;;;;0.74;80.67;103129.44;5076225;28;20080;-79
2022/03/21 02:28:37;;;;;;;67.60;29.38;;;;;;;0.69;81.67;103134.19;5083132;28;20585;-80
2022/03/21 02:31:06;;;;;;;65.45;28.35;;;;;;;0.68;81.61;103134.06;5072104;28;20052;-73
2022/03/21 02:33:37;;;;;;;65.22;27.75;;;;;;;0.62;81.45;103127.56;5066196;28;20052;-74
2022/03/21 02:36:05;;;;;;;69.38;29.40;;;;;;;0.58;82.19;103129.75;5073448;28;20052;-73
2022/03/21 02:38:35;;;;;;;68.30;30.20;;;;;;;0.53;81.97;103131.91;5075246;28;20040;-73
2022/03/21 02:41:05;;;;;;;71.47;30.45;;;;;;;0.50;82.87;103135.88;5073919;28;20055;-73
2022/03/21 02:43:48;;;;;;;67.70;30.70;;;;;;;0.46;82.63;103133.81;5074411;28;20060;-74
2022/03/21 02:46:17;;;;;;;78.05;33.33;;;;;;;0.41;83.45;103135.06;5073812;28;20048;-73
2022/03/21 02:48:46;;;;;;;82.10;34.13;;;;;;;0.43;84.04;103138.69;5076599;28;20056;-74
2022/03/21 02:51:14;;;;;;;72.78;29.40;;;;;;;0.35;82.99;103142.25;5072399;28;20522;-73
2022/03/21 02:53:46;;;;;;;68.18;30.00;;;;;;;0.31;83.98;103135.91;5068125;28;20036;-74
2022/03/21 02:56:21;;;;;;;63.25;27.45;;;;;;;0.26;83.94;103138.06;5072590;28;20051;-73
2022/03/21 02:58:53;;;;;;;63.00;28.77;;;;;;;0.22;83.02;103138.53;5077545;28;20141;-73
2022/03/21 03:01:22;;;;;;;57.65;26.30;;;;;;;0.21;83.37;103135.81;5073755;28;20039;-74
2022/03/21 03:03:50;;;;;;;59.47;27.75;;;;;;;0.18;83.63;103141.63;5073734;28;20583;-73
2022/03/21 03:06:18;;;;;;;69.93;30.83;;;;;;;0.14;83.97;103131.78;5077931;28;20064;-79
2022/03/21 03:08:46;;;;;;;67.93;30.05;;;;;;;0.14;83.84;103139.53;5081920;28;20130;-79
2022/03/21 03:11:16;;;;;;;70.85;30.40;;;;;;;0.16;84.22;103140.56;5081080;28;20086;-78
2022/03/21 03:13:43;;;;;;;68.00;30.80;;;;;;;0.17;84.39;103141.47;5079095;28;20095;-78
2022/03/21 03:16:11;;;;;;;70.30;29.33;;;;;;;0.14;84.08;103144.69;5076875;28;20061;-80
2022/03/21 03:18:44;;;;;;;67.78;29.42;;;;;;;0.15;84.26;103140.44;5079771;28;20566;-80
2022/03/21 03:21:15;;;;;;;72.65;31.75;;;;;;;0.10;84.35;103152.00;5078042;28;20058;-80
2022/03/21 03:23:43;;;;;;;69.20;28.50;;;;;;;0.05;84.35;103149.00;5079986;28;20116;-79
2022/03/21 03:26:11;;;;;;;68.50;29.00;;;;;;;-0.01;83.83;103148.47;5073724;28;20048;-78
2022/03/21 03:28:40;;;;;;;65.85;28.70;;;;;;;0.01;84.05;103154.63;5075034;28;20048;-79
2022/03/21 03:31:15;;;;;;;63.50;29.58;;;;;;;-0.02;84.11;103157.88;5074984;28;20652;-78
2022/03/21 03:33:45;;;;;;;69.05;29.48;;;;;;;-0.01;84.20;103149.38;5074560;28;20051;-79
2022/03/21 03:36:15;;;;;;;67.55;30.75;;;;;;;0.05;84.32;103150.66;5077165;28;20054;-80
2022/03/21 03:38:43;;;;;;;65.82;28.15;;;;;;;0.06;84.47;103158.53;5078183;28;20044;-77
2022/03/21 03:41:11;;;;;;;69.90;29.88;;;;;;;0.14;85.36;103155.00;5075010;28;20147;-77
2022/03/21 03:43:43;;;;;;;84.03;33.45;;;;;;;0.18;85.15;103162.25;5074647;28;20059;-78
2022/03/21 03:46:11;;;;;;;75.93;32.22;;;;;;;0.22;85.52;103153.13;5078648;28;20047;-78
2022/03/21 03:48:41;;;;;;;71.97;30.23;;;;;;;0.26;85.41;103158.72;5069239;28;20056;-77
2022/03/21 03:51:09;;;;;;;73.13;31.60;;;;;;;0.28;85.55;103154.59;5077076;28;20044;-78
2022/03/21 03:53:37;;;;;;;79.70;33.13;;;;;;;0.27;85.97;103160.53;5080450;28;20198;-79
2022/03/21 03:56:07;;;;;;;81.32;32.58;;;;;;;0.32;86.03;103154.09;5079770;28;20044;-79
2022/03/21 03:58:35;;;;;;;82.82;35.50;;;;;;;0.37;86.46;103149.34;5073914;28;20055;-81
2022/03/21 04:01:05;;;;;;;71.82;32.65;;;;;;;0.34;85.77;103154.25;5082346;28;20040;-79
2022/03/21 04:03:45;;;;;;;75.65;32.90;;;;;;;0.29;85.30;103163.25;5076130;28;20171;-80
2022/03/21 04:06:15;;;;;;;84.93;33.30;;;;;;;0.25;85.85;103154.31;5079665;28;20062;-78
2022/03/21 04:08:43;;;;;;;67.07;30.30;;;;;;;0.21;85.80;103162.53;5083703;28;20107;-79
2022/03/21 04:11:11;;;;;;;74.35;32.28;;;;;;;0.17;85.57;103164.69;5073841;28;20068;-78
2022/03/21 04:13:41;;;;;;;74.97;31.33;;;;;;;0.14;86.06;103167.91;5066985;28;20144;-78
2022/03/21 04:16:11;;;;;;;79.63;32.80;;;;;;;0.08;85.93;103157.00;5070140;28;20280;-78
2022/03/21 04:18:39;;;;;;;84.65;35.47;;;;;;;0.00;85.63;103160.59;5076851;28;20090;-80
2022/03/21 04:21:24;;;;;;;84.55;33.28;;;;;;;-0.08;85.89;103162.47;5072350;28;20041;-78
2022/03/21 04:23:56;;;;;;;74.75;31.33;;;;;;;-0.07;86.47;103163.38;5069264;28;20101;-78
2022/03/21 04:26:24;;;;;;;75.50;32.28;;;;;;;-0.06;86.05;103167.75;5077946;28;20357;-79
2022/03/21 04:28:52;;;;;;;85.47;34.05;;;;;;;0.01;86.54;103167.53;5076274;28;20217;-79
2022/03/21 04:31:21;;;;;;;81.30;33.92;;;;;;;0.15;87.02;103167.13;5071509;28;20036;-78
2022/03/21 04:34:04;;;;;;;76.80;33.97;;;;;;;0.26;86.79;103163.88;5078874;28;20143;-78
2022/03/21 04:36:32;;;;;;;79.15;33.63;;;;;;;0.20;86.01;103171.03;5082161;28;20091;-79
2022/03/21 04:38:59;;;;;;;78.88;30.45;;;;;;;0.22;86.12;103164.34;5078704;28;20162;-81
2022/03/21 04:41:29;;;;;;;76.55;31.60;;;;;;;0.17;85.67;103167.28;5080105;28;20420;-78
2022/03/21 04:43:57;;;;;;;82.95;35.75;;;;;;;0.14;85.81;103167.00;5079401;28;20755;-73
2022/03/21 04:46:27;;;;;;;73.00;30.13;;;;;;;0.10;85.83;103173.53;5078695;28;20040;-73
2022/03/21 04:48:55;;;;;;;72.60;30.15;;;;;;;0.08;85.90;103180.25;5077210;28;20051;-73
2022/03/21 04:51:23;;;;;;;78.47;32.95;;;;;;;0.07;85.76;103173.25;5073702;28;20082;-73
2022/03/21 04:53:51;;;;;;;80.65;34.30;;;;;;;0.11;86.14;103175.34;5058423;28;20085;-73
2022/03/21 04:56:19;;;;;;;89.13;36.00;;;;;;;0.19;86.43;103173.47;5076599;28;20075;-73
2022/03/21 04:58:50;;;;;;;91.20;38.33;;;;;;;0.34;86.47;103177.47;5069362;28;20052;-74
2022/03/21 05:01:18;;;;;;;84.57;35.03;;;;;;;0.41;85.98;103173.78;5077685;28;20130;-73
2022/03/21 05:03:47;;;;;;;85.45;36.67;;;;;;;0.45;85.72;103174.19;5076499;28;20098;-73
2022/03/21 05:06:17;;;;;;;83.07;34.88;;;;;;;0.46;85.47;103176.00;5080192;28;20040;-73
2022/03/21 05:08:45;;;;;;;81.25;35.33;;;;;;;0.38;85.13;103176.09;5076735;28;20052;-73
2022/03/21 05:11:15;;;;;;;80.40;33.13;;;;;;;0.29;85.15;103171.91;5071764;28;20058;-73
2022/03/21 05:13:43;;;;;;;79.18;32.42;;;;;;;0.20;84.94;103183.94;5074519;28;20078;-73
2022/03/21 05:16:11;;;;;;;77.47;33.70;;;;;;;0.11;84.83;103184.78;5078383;28;20315;-74
2022/03/21 05:18:43;;;;;;;78.28;32.28;;;;;;;0.02;85.18;103190.00;5080017;28;20052;-74
2022/03/21 05:21:13;;;;;;;80.00;32.83;;;;;;;-0.04;85.22;103184.28;5067064;28;20069;-74
2022/03/21 05:31:57;;;;;;;90.40;34.35;;;;;;;0.26;85.71;103191.34;5084232;28;20083;-73
2022/03/21 05:37:12;;;;;;;86.35;36.15;;;;;;;0.80;85.18;103194.56;5041866;28;20801;-73
2022/03/21 05:42:24;;;;;;;98.75;39.58;;;;;;;1.19;83.74;103186.84;5072582;28;20037;-73
2022/03/21 05:44:53;;;;;;;87.15;36.25;;;;;;;1.14;84.13;103198.44;5070205;28;20044;-73
2022/03/21 05:47:21;;;;;;;84.32;34.28;;;;;;;1.09;84.13;103203.22;5075424;28;20134;-73
2022/03/21 05:49:48;;;;;;;95.72;38.55;;;;;;;1.13;83.56;103202.72;5070634;28;20051;-73
2022/03/21 05:52:17;;;;;;;82.90;34.50;;;;;;;1.20;83.46;103205.06;5075906;28;20048;-73
2022/03/21 05:54:45;;;;;;;83.95;34.47;;;;;;;1.12;83.55;103202.56;5073465;28;20049;-74
2022/03/21 05:57:13;;;;;;;92.57;37.08;;;;;;;1.02;83.36;103213.81;5074520;28;20083;-73
2022/03/21 06:02:26;;;;;;;82.50;33.38;;;;;;;0.82;83.72;103206.84;5066497;28;20407;-74
2022/03/21 06:04:54;;;;;;;91.53;33.55;;;;;;;0.85;83.85;103208.78;5055956;28;20048;-74
2022/03/21 06:07:24;;;;;;;98.15;39.33;;;;;;;0.80;84.25;103213.53;5075729;28;20101;-73
2022/03/21 06:09:52;;;;;;;96.03;39.05;;;;;;;0.82;84.42;103216.28;5073981;28;20336;-73
2022/03/21 06:12:20;;;;;;;87.65;36.05;;;;;;;0.82;84.40;103217.19;5058683;28;20054;-73
2022/03/21 06:14:48;;;;;;;94.55;35.33;;;;;;;0.79;84.20;103219.47;5065161;28;20057;-73
2022/03/21 06:17:16;;;;;;;90.95;34.40;;;;;;;0.81;84.65;103227.38;5077913;28;20786;-73
2022/03/21 06:19:44;;;;;;;84.05;35.97;;;;;;;0.75;84.52;103221.66;5067184;28;20400;-73
2022/03/21 06:22:12;;;;;;;89.90;36.10;;;;;;;0.73;84.80;103228.34;5073355;28;20133;-73
2022/03/21 06:24:41;;;;;;;92.07;36.97;;;;;;;0.73;84.90;103233.53;5070647;28;20079;-73
2022/03/21 06:27:09;;;;;;;85.75;34.47;;;;;;;0.69;85.04;103237.50;5075555;28;20048;-73
2022/03/21 06:29:41;;;;;;;88.53;34.13;;;;;;;0.70;84.73;103246.16;5057066;28;20044;-73
2022/03/21 06:32:11;;;;;;;88.68;32.58;;;;;;;0.69;85.12;103242.66;5074490;28;20052;-73
2022/03/21 06:34:39;;;;;;;93.65;34.97;;;;;;;0.67;85.08;103254.53;5069617;28;20053;-74
2022/03/21 06:37:08;;;;;;;82.22;34.03;;;;;;;0.68;85.28;103240.84;5073606;28;20109;-74
2022/03/21 06:39:36;;;;;;;90.00;35.63;;;;;;;0.70;85.30;103241.00;5070274;28;20055;-74
2022/03/21 06:42:07;;;;;;;88.65;33.25;;;;;;;0.71;85.33;103246.28;5078793;28;20295;-76
2022/03/21 06:44:34;;;;;;;89.78;36.10;;;;;;;0.75;85.67;103247.47;5077641;28;20105;-76
2022/03/21 06:47:03;;;;;;;83.65;31.83;;;;;;;0.77;85.80;103257.19;5075335;28;20052;-76
2022/03/21 06:49:32;;;;;;;87.32;36.90;;;;;;;0.86;85.76;103252.84;5075444;28;20101;-75
2022/03/21 06:52:02;;;;;;;84.15;35.00;;;;;;;1.02;86.02;103254.22;5076188;28;20116;-75
2022/03/21 06:54:30;;;;;;;113.68;44.00;;;;;;;1.11;85.72;103252.44;5070952;28;20050;-75
2022/03/21 06:56:58;;;;;;;90.03;35.42;;;;;;;1.14;85.67;103255.31;5075558;28;20040;-75
2022/03/21 06:59:29;;;;;;;94.28;36.65;;;;;;;1.28;85.79;103263.53;5075632;28;20128;-74
2022/03/21 07:01:57;;;;;;;97.57;40.25;;;;;;;1.46;85.88;103255.59;5073334;28;20048;-75
2022/03/21 07:04:26;;;;;;;111.22;41.17;;;;;;;1.74;85.46;103258.91;5075178;28;20091;-75
2022/03/21 07:06:54;;;;;;;110.88;38.83;;;;;;;1.91;84.93;103259.59;5064641;28;20040;-76
2022/03/21 07:09:24;;;;;;;110.43;42.65;;;;;;;1.98;84.84;103263.63;5076491;28;20072;-75
2022/03/21 07:11:52;;;;;;;107.05;40.65;;;;;;;2.12;84.68;103260.50;5075654;28;20048;-75
2022/03/21 07:14:21;;;;;;;94.50;40.50;;;;;;;2.30;83.91;103267.25;5077381;28;20032;-75
2022/03/21 07:16:50;;;;;;;123.80;47.15;;;;;;;2.48;83.28;103267.00;5074671;28;20151;-75
2022/03/21 07:19:18;;;;;;;118.18;43.30;;;;;;;2.71;82.50;103266.34;5082252;28;20644;-75
2022/03/21 07:21:47;;;;;;;113.72;42.40;;;;;;;2.77;82.55;103256.50;5075062;28;20575;-77
2022/03/21 07:24:15;;;;;;;118.72;44.58;;;;;;;3.13;81.21;103256.00;5076964;28;20123;-76
2022/03/21 07:26:43;;;;;;;106.45;42.17;;;;;;;3.22;81.30;103264.53;5077543;28;20055;-76
2022/03/21 07:29:12;;;;;;;112.95;43.42;;;;;;;3.35;80.95;103262.16;5073723;28;20044;-77
2022/03/21 07:31:40;;;;;;;117.82;41.20;;;;;;;3.56;80.42;103258.69;5072159;28;20134;-78
2022/03/21 07:34:09;;;;;;;112.78;45.53;;;;;;;3.84;79.15;103264.38;5072069;28;20040;-77
2022/03/21 07:36:37;;;;;;;119.35;44.10;;;;;;;4.18;77.59;103261.78;5073866;28;20060;-75
2022/03/21 07:39:05;;;;;;;111.78;44.70;;;;;;;4.42;77.36;103260.19;5079675;28;20564;-76
2022/03/21 07:41:35;;;;;;;98.60;41.67;;;;;;;4.72;75.89;103259.91;5076786;28;20046;-76
2022/03/21 07:44:06;;;;;;;114.88;43.22;;;;;;;4.97;75.85;103259.16;5077648;28;20259;-77
2022/03/21 07:49:21;;;;;;;105.80;41.78;;;;;;;5.65;74.58;103263.25;5080501;28;20140;-75
2022/03/21 07:51:49;;;;;;;117.80;45.92;;;;;;;5.96;73.68;103262.06;5064642;28;20082;-75
2022/03/21 07:54:16;;;;;;;122.00;44.03;;;;;;;6.17;71.92;103265.28;5065745;28;20055;-75
2022/03/21 07:56:44;;;;;;;125.20;46.35;;;;;;;6.42;70.60;103267.84;5073110;28;20536;-75
2022/03/21 07:59:12;;;;;;;111.60;40.67;;;;;;;6.67;69.52;103266.09;5072740;28;20098;-75
2022/03/21 08:01:45;;;;;;;105.53;43.00;;;;;;;6.86;67.78;103268.25;5066964;28;20495;-75
2022/03/21 08:04:13;;;;;;;100.53;38.90;;;;;;;7.11;67.99;103263.84;5078220;28;20044;-75
2022/03/21 08:06:43;;;;;;;109.97;40.08;;;;;;;7.28;65.97;103272.75;5072646;28;20085;-75
2022/03/21 08:09:10;;;;;;;109.45;42.20;;;;;;;7.49;65.85;103270.63;5083133;28;20050;-76
2022/03/21 08:11:39;;;;;;;103.07;39.72;;;;;;;7.57;64.44;103268.53;5077299;28;20093;-75
2022/03/21 08:14:07;;;;;;;106.20;39.95;;;;;;;7.79;65.04;103256.00;5082595;28;20067;-75
2022/03/21 08:16:35;;;;;;;93.28;39.70;;;;;;;8.02;64.66;103255.75;5073021;28;20060;-75
2022/03/21 08:19:04;;;;;;;94.75;39.97;;;;;;;8.25;63.70;103261.47;5071933;28;20135;-76
2022/03/21 08:21:31;;;;;;;88.95;37.28;;;;;;;8.45;61.71;103267.13;5078460;28;20039;-74
2022/03/21 08:24:01;;;;;;;93.63;38.92;;;;;;;8.65;61.40;103268.31;5078637;28;20150;-75
2022/03/21 08:26:32;;;;;;;78.35;34.97;;;;;;;8.74;59.99;103266.25;5082958;28;20079;-75
2022/03/21 08:28:59;;;;;;;86.63;36.97;;;;;;;8.95;60.58;103268.31;5075704;28;20047;-75
2022/03/21 08:31:29;;;;;;;80.57;34.15;;;;;;;9.09;59.53;103265.69;5079182;28;20097;-76
2022/03/21 08:33:57;;;;;;;83.15;34.65;;;;;;;9.11;57.64;103271.03;5070113;28;20064;-77
2022/03/21 08:36:27;;;;;;;79.57;34.97;;;;;;;9.22;56.85;103263.78;5074276;28;20867;-77
2022/03/21 08:38:55;;;;;;;78.20;35.83;;;;;;;9.40;56.43;103260.47;5082320;28;20044;-78
2022/03/21 08:41:24;;;;;;;74.88;33.42;;;;;;;9.46;55.28;103263.44;5081044;28;20125;-77
2022/03/21 08:43:56;;;;;;;67.65;30.73;;;;;;;9.63;54.92;103266.09;5062467;28;20044;-78
2022/03/21 08:46:27;;;;;;;71.10;31.98;;;;;;;9.72;54.55;103262.25;5078982;28;20040;-78
2022/03/21 08:52:01;;;;;;;64.70;29.25;;;;;;;9.96;52.74;103260.06;5074751;28;20113;-77
2022/03/21 08:54:29;;;;;;;68.13;31.40;;;;;;;10.10;51.73;103268.69;5077369;28;20516;-77
2022/03/21 08:57:04;;;;;;;67.35;27.88;;;;;;;10.01;51.62;103265.56;5077521;28;20479;-76
2022/03/21 08:59:33;;;;;;;67.00;28.92;;;;;;;10.29;52.23;103265.38;5077811;28;20047;-77
2022/03/21 09:02:00;;;;;;;66.82;30.02;;;;;;;10.29;51.09;103260.13;5076645;28;20090;-77
2022/03/21 09:04:29;;;;;;;63.00;29.05;;;;;;;10.41;51.78;103266.88;5078738;28;20054;-77
2022/03/21 09:06:57;;;;;;;64.55;28.67;;;;;;;10.48;51.00;103262.84;5083166;28;20124;-76
2022/03/21 09:09:25;;;;;;;67.32;29.13;;;;;;;10.45;50.91;103260.97;5081675;28;20078;-77
2022/03/21 09:11:55;;;;;;;59.65;27.38;;;;;;;10.47;50.24;103264.56;5077379;28;20115;-75
2022/03/21 09:14:24;;;;;;;62.85;28.67;;;;;;;10.93;51.09;103252.91;5079222;28;20475;-75
2022/03/21 09:16:52;;;;;;;60.60;28.35;;;;;;;11.06;49.80;103257.94;5077202;28;20048;-75
2022/03/21 09:19:22;;;;;;;69.32;29.67;;;;;;;10.97;49.56;103255.75;5072859;28;20046;-75
2022/03/21 09:21:51;;;;;;;58.53;27.08;;;;;;;11.26;49.44;103254.56;5077584;28;20267;-75
2022/03/21 09:24:19;;;;;;;67.82;29.23;;;;;;;11.42;48.68;103254.50;5079476;28;20575;-75
2022/03/21 09:26:47;;;;;;;62.38;29.38;;;;;;;11.55;48.60;103257.69;5077114;28;20075;-78
2022/03/21 09:29:15;;;;;;;66.10;28.58;;;;;;;11.38;48.36;103256.91;5079658;28;20178;-78
2022/03/21 09:31:52;;;;;;;63.60;28.38;;;;;;;11.61;48.07;103250.06;5079430;28;20138;-79
2022/03/21 09:34:20;;;;;;;61.95;26.27;;;;;;;11.60;47.23;103256.16;5070013;28;20093;-78
2022/03/21 09:36:49;;;;;;;61.55;27.98;;;;;;;11.55;47.31;103248.06;5078022;28;20109;-76
2022/03/21 09:39:17;;;;;;;57.75;27.65;;;;;;;11.64;47.63;103250.22;5079330;28;20098;-77
2022/03/21 09:41:46;;;;;;;62.92;27.05;;;;;;;11.80;47.18;103250.16;5080041;28;20075;-79
2022/03/21 09:44:14;;;;;;;52.70;25.20;;;;;;;11.66;46.70;103252.09;5069281;28;20453;-78
2022/03/21 09:46:46;;;;;;;62.17;27.17;;;;;;;11.82;46.70;103250.22;5079310;28;20040;-78
2022/03/21 09:49:16;;;;;;;61.90;26.17;;;;;;;12.05;46.34;103239.94;5079906;28;20495;-78
2022/03/21 09:51:45;;;;;;;62.08;27.38;;;;;;;12.08;45.86;103240.06;5079079;28;20044;-78
2022/03/21 09:54:14;;;;;;;62.83;27.52;;;;;;;12.30;45.44;103241.94;5069771;28;20040;-76
2022/03/21 09:56:41;;;;;;;42.95;19.52;;;;;;;12.32;44.54;103235.00;5077272;28;20150;-78
2022/03/21 09:59:09;;;;;;;53.53;26.27;;;;;;;12.51;44.64;103243.66;5071766;28;20060;-77
2022/03/21 10:01:38;;;;;;;48.78;23.55;;;;;;;12.64;44.23;103233.75;5079384;28;20058;-77
2022/03/21 10:04:09;;;;;;;51.72;22.80;;;;;;;12.76;43.60;103234.25;5077562;28;20060;-78
2022/03/21 10:06:40;;;;;;;53.95;22.73;;;;;;;12.87;43.21;103237.34;5069111;28;20131;-78
2022/03/21 10:09:11;;;;;;;56.30;23.63;;;;;;;13.10;42.61;103239.19;5067168;28;20052;-77
2022/03/21 10:11:41;;;;;;;46.05;21.73;;;;;;;13.02;42.00;103239.72;5078478;28;20048;-78
2022/03/21 10:14:27;;;;;;;46.65;21.02;;;;;;;13.40;41.67;103236.94;5071551;28;20052;-78
2022/03/21 10:16:57;;;;;;;45.38;20.40;;;;;;;13.56;40.87;103237.50;5076142;28;20159;-78
2022/03/21 10:19:28;;;;;;;46.13;19.50;;;;;;;13.37;39.30;103241.19;5076577;28;20044;-78
2022/03/21 10:22:06;;;;;;;41.10;19.50;;;;;;;13.25;39.75;103238.97;5071473;28;20079;-76
2022/03/21 10:24:36;;;;;;;42.60;18.17;;;;;;;13.68;39.34;103243.25;5076521;28;20105;-77
2022/03/21 10:27:05;;;;;;;39.47;19.33;;;;;;;13.87;39.31;103237.84;5076770;28;20056;-77
2022/03/21 10:29:50;;;;;;;41.90;18.92;;;;;;;13.29;38.22;103248.78;5077347;28;20048;-76
2022/03/21 10:32:33;;;;;;;44.80;19.25;;;;;;;13.81;39.10;103236.72;5075087;28;20051;-76
2022/03/21 10:35:06;;;;;;;36.50;17.27;;;;;;;13.97;39.26;103229.44;5065699;28;20065;-77
2022/03/21 10:37:53;;;;;;;38.53;18.73;;;;;;;14.24;37.00;103231.28;5076756;28;20336;-76
2022/03/21 10:40:31;;;;;;;34.58;17.33;;;;;;;14.17;36.66;103224.91;5067334;28;20050;-79
2022/03/21 10:43:01;;;;;;;32.75;16.67;;;;;;;13.97;35.05;103226.81;5076618;28;20052;-78
2022/03/21 10:45:44;;;;;;;31.90;15.48;;;;;;;14.03;34.89;103232.31;5073745;28;20087;-78
2022/03/21 10:48:14;;;;;;;33.25;15.95;;;;;;;13.98;34.07;103220.69;5075718;28;20070;-78
2022/03/21 10:50:46;;;;;;;25.85;13.88;;;;;;;14.27;35.03;103227.03;5078964;28;20187;-79
2022/03/21 10:53:15;;;;;;;28.73;14.32;;;;;;;14.16;34.50;103230.13;5072913;28;20060;-77
2022/03/21 10:55:45;;;;;;;31.77;14.88;;;;;;;14.45;34.69;103223.28;5073443;28;20187;-79
2022/03/21 10:58:15;;;;;;;30.40;13.80;;;;;;;14.79;34.34;103222.66;5071491;28;20063;-78
2022/03/21 11:00:44;;;;;;;31.00;15.73;;;;;;;14.70;34.33;103220.59;5072985;28;20070;-77
2022/03/21 11:03:15;;;;;;;30.05;15.77;;;;;;;14.77;33.67;103212.06;5076651;28;20049;-78
2022/03/21 11:05:46;;;;;;;32.72;15.82;;;;;;;14.52;34.40;103222.66;5059531;28;20052;-77
2022/03/21 11:08:17;;;;;;;31.35;14.55;;;;;;;14.55;34.63;103210.44;5066135;28;20183;-77
2022/03/21 11:10:46;;;;;;;29.17;13.90;;;;;;;14.90;34.36;103210.72;5075920;28;20506;-77
2022/03/21 11:13:14;;;;;;;31.92;15.07;;;;;;;15.25;33.78;103211.84;5074358;28;20120;-77
2022/03/21 11:15:42;;;;;;;29.73;15.07;;;;;;;15.03;33.22;103212.91;5073347;28;20056;-76
2022/03/21 11:18:12;;;;;;;31.67;16.30;;;;;;;15.21;34.09;103205.56;5078174;28;20048;-77
2022/03/21 11:20:42;;;;;;;31.50;14.50;;;;;;;15.45;33.73;103199.25;5074441;28;20056;-78
2022/03/21 11:23:15;;;;;;;27.13;14.27;;;;;;;15.60;33.53;103205.06;5076913;28;20060;-76
2022/03/21 11:25:50;;;;;;;30.30;15.77;;;;;;;15.52;34.24;103206.53;5065319;28;20048;-76
2022/03/21 11:28:39;;;;;;;33.67;15.55;;;;;;;15.51;35.23;103210.03;5077733;28;20056;-75
2022/03/21 11:31:51;;;;;;;33.95;14.20;;;;;;;15.69;34.56;103205.28;5069108;28;20055;-76
2022/03/21 11:34:35;;;;;;;26.98;14.27;;;;;;;15.69;33.67;103200.00;5071162;28;20040;-74
2022/03/21 11:37:03;;;;;;;26.37;14.30;;;;;;;15.22;34.04;103198.53;5071763;28;20051;-76
2022/03/21 11:39:33;;;;;;;33.13;14.85;;;;;;;15.41;35.12;103197.38;5064704;28;20798;-77
2022/03/21 11:42:06;;;;;;;28.13;15.20;;;;;;;15.40;34.75;103199.13;5069226;28;20318;-74
2022/03/21 11:44:34;;;;;;;28.77;15.25;;;;;;;15.69;34.89;103194.72;5063703;28;20109;-76
2022/03/21 11:47:22;;;;;;;28.33;15.00;;;;;;;15.88;35.55;103193.50;5072805;28;20140;-75
2022/03/21 11:49:51;;;;;;;29.75;14.73;;;;;;;15.85;34.62;103194.31;5069009;28;20144;-76
2022/03/21 11:52:19;;;;;;;29.27;15.52;;;;;;;16.12;33.64;103188.00;5075617;28;20044;-76